Time;durP1;ratioP1;P1;durP2;ratioP2;P2;SDS_P1;SDS_P2;PMS_P1;PMS_P2;Temp;Humidity;BMP_temperature;BMP_pressure;BME280_temperature;BME280_humidity;BME280_pressure;Samples;Min_cycle;Max_cycle;Signal;HPM_P1;HPM_P2
2023/03/17 00:00:41;;;;;;;3.93;3.50;;;;;;;;;;5092666;28;20235;-81
2023/03/17 00:03:17;;;;;;;4.40;3.70;;;;;;;;;;5092457;28;20191;-81
2023/03/17 00:05:46;;;;;;;3.67;3.37;;;;;;;;;;5092376;28;20218;-81
2023/03/17 00:08:19;;;;;;;4.63;3.70;;;;;;;;;;5092589;28;20202;-81
2023/03/17 00:10:47;;;;;;;3.90;3.43;;;;;;;;;;5092334;28;20202;-81
2023/03/17 00:13:16;;;;;;;5.63;4.00;;;;;;;;;;5092432;28;20222;-81
2023/03/17 00:15:45;;;;;;;5.30;4.13;;;;;;;;;;5092766;28;20298;-81
2023/03/17 00:18:17;;;;;;;4.23;3.47;;;;;;;;;;5092392;28;20206;-81
2023/03/17 00:20:46;;;;;;;7.87;3.37;;;;;;;;;;5092122;28;20189;-81
2023/03/17 00:23:16;;;;;;;5.87;4.20;;;;;;;;;;5092500;28;20194;-81
2023/03/17 00:25:45;;;;;;;3.63;3.33;;;;;;;;;;5092331;28;20225;-81
2023/03/17 00:28:17;;;;;;;4.93;3.80;;;;;;;;;;5092408;28;20203;-81
2023/03/17 00:30:46;;;;;;;5.10;3.50;;;;;;;;;;5094489;28;20200;-81
2023/03/17 00:33:17;;;;;;;4.33;3.17;;;;;;;;;;5095951;28;20250;-81
2023/03/17 00:35:46;;;;;;;3.83;3.43;;;;;;;;;;5096268;28;20201;-81
2023/03/17 00:38:16;;;;;;;4.50;3.47;;;;;;;;;;5096071;28;20202;-81
2023/03/17 00:40:45;;;;;;;4.73;3.57;;;;;;;;;;5096255;28;20201;-81
2023/03/17 00:43:16;;;;;;;5.80;3.43;;;;;;;;;;5096374;28;20228;-82
2023/03/17 00:45:45;;;;;;;4.27;3.83;;;;;;;;;;5096045;28;20203;-82
2023/03/17 00:48:16;;;;;;;3.40;3.10;;;;;;;;;;5095631;28;20237;-82
2023/03/17 00:50:45;;;;;;;3.20;2.80;;;;;;;;;;5096088;28;20222;-83
2023/03/17 00:53:14;;;;;;;4.33;3.93;;;;;;;;;;5095468;28;20216;-82
2023/03/17 00:55:43;;;;;;;4.53;3.67;;;;;;;;;;5095936;28;20219;-82
2023/03/17 00:58:14;;;;;;;3.60;3.30;;;;;;;;;;5095339;28;20206;-82
2023/03/17 01:00:42;;;;;;;3.40;3.03;;;;;;;;;;5095498;28;20242;-82
2023/03/17 01:03:12;;;;;;;4.50;3.43;;;;;;;;;;5095060;28;20200;-82
2023/03/17 01:05:42;;;;;;;5.37;4.53;;;;;;;;;;5095649;28;20261;-83
2023/03/17 01:08:10;;;;;;;4.30;3.70;;;;;;;;;;5094966;28;20209;-82
2023/03/17 01:10:41;;;;;;;4.27;3.20;;;;;;;;;;5095582;28;20218;-83
2023/03/17 01:13:12;;;;;;;12.60;3.83;;;;;;;;;;5095448;28;20229;-82
2023/03/17 01:15:42;;;;;;;4.60;4.10;;;;;;;;;;5095515;28;20273;-82
2023/03/17 01:18:11;;;;;;;5.33;4.40;;;;;;;;;;5095210;28;20241;-82
2023/03/17 01:20:39;;;;;;;4.50;3.80;;;;;;;;;;5095153;28;20191;-82
2023/03/17 01:23:10;;;;;;;4.63;4.10;;;;;;;;;;5094844;28;20298;-82
2023/03/17 01:25:39;;;;;;;5.73;3.80;;;;;;;;;;5095165;28;20202;-82
2023/03/17 01:28:08;;;;;;;4.43;4.03;;;;;;;;;;5094916;28;20264;-82
2023/03/17 01:30:38;;;;;;;4.67;3.43;;;;;;;;;;5095097;28;20414;-82
2023/03/17 01:33:07;;;;;;;4.97;4.10;;;;;;;;;;5094790;28;20252;-82
2023/03/17 01:35:37;;;;;;;5.73;4.53;;;;;;;;;;5095045;28;20189;-82
2023/03/17 01:38:06;;;;;;;3.77;3.47;;;;;;;;;;5094854;28;20302;-82
2023/03/17 01:40:37;;;;;;;3.67;3.37;;;;;;;;;;5094773;28;20205;-82
2023/03/17 01:43:17;;;;;;;6.67;3.77;;;;;;;;;;5094453;28;20208;-82
2023/03/17 01:46:05;;;;;;;5.10;4.03;;;;;;;;;;5094934;28;20204;-82
2023/03/17 01:48:36;;;;;;;4.70;3.53;;;;;;;;;;5094645;28;20212;-82
2023/03/17 01:51:05;;;;;;;5.73;3.57;;;;;;;;;;5094486;28;20262;-82
2023/03/17 01:53:34;;;;;;;3.50;3.20;;;;;;;;;;5094541;28;20210;-82
2023/03/17 01:56:04;;;;;;;8.33;4.20;;;;;;;;;;5094486;28;20233;-82
2023/03/17 01:58:33;;;;;;;7.63;3.97;;;;;;;;;;5094340;28;20201;-82
2023/03/17 02:01:01;;;;;;;5.37;3.67;;;;;;;;;;5094086;28;20194;-82
2023/03/17 02:03:30;;;;;;;6.10;3.80;;;;;;;;;;5094169;28;20185;-82
2023/03/17 02:05:59;;;;;;;4.77;4.27;;;;;;;;;;5094409;28;20218;-82
2023/03/17 02:08:27;;;;;;;7.93;3.30;;;;;;;;;;5093988;28;20237;-82
2023/03/17 02:10:57;;;;;;;6.30;4.67;;;;;;;;;;5094241;28;20226;-82
2023/03/17 02:13:27;;;;;;;4.83;4.20;;;;;;;;;;5093893;28;20228;-82
2023/03/17 02:15:55;;;;;;;4.57;3.00;;;;;;;;;;5094249;28;20197;-82
2023/03/17 02:18:24;;;;;;;4.10;3.80;;;;;;;;;;5094224;28;20198;-82
2023/03/17 02:21:11;;;;;;;5.00;3.93;;;;;;;;;;5094470;28;20240;-82
2023/03/17 02:23:40;;;;;;;4.53;4.13;;;;;;;;;;5080925;28;20255;-82
2023/03/17 02:26:09;;;;;;;5.20;4.17;;;;;;;;;;5093824;28;20246;-82
2023/03/17 02:28:38;;;;;;;5.27;4.07;;;;;;;;;;5093819;28;20228;-82
2023/03/17 02:31:08;;;;;;;4.70;4.27;;;;;;;;;;5094010;28;20232;-82
2023/03/17 02:33:36;;;;;;;4.20;3.70;;;;;;;;;;5093624;28;20202;-81
2023/03/17 02:36:06;;;;;;;5.47;4.07;;;;;;;;;;5093988;28;20201;-81
2023/03/17 02:38:34;;;;;;;4.73;4.00;;;;;;;;;;5093672;28;20196;-81
2023/03/17 02:41:05;;;;;;;5.27;4.27;;;;;;;;;;5093578;28;20221;-82
2023/03/17 02:43:33;;;;;;;2.63;2.43;;;;;;;;;;5093786;28;20198;-82
2023/03/17 02:46:02;;;;;;;4.30;3.70;;;;;;;;;;5093612;28;20251;-81
2023/03/17 02:48:30;;;;;;;4.83;4.30;;;;;;;;;;5093700;28;20202;-81
2023/03/17 02:50:59;;;;;;;4.37;3.97;;;;;;;;;;5093824;28;20223;-81
2023/03/17 02:53:27;;;;;;;4.57;3.50;;;;;;;;;;5092483;28;20197;-81
2023/03/17 02:55:56;;;;;;;2.97;2.77;;;;;;;;;;5093596;28;20233;-81
2023/03/17 02:58:26;;;;;;;5.17;4.67;;;;;;;;;;5093530;28;20289;-81
2023/03/17 03:00:54;;;;;;;4.90;4.40;;;;;;;;;;5093347;28;20252;-81
2023/03/17 03:03:23;;;;;;;4.20;3.73;;;;;;;;;;5093321;28;20193;-81
2023/03/17 03:05:51;;;;;;;4.67;3.90;;;;;;;;;;5093302;28;20249;-81
2023/03/17 03:08:20;;;;;;;3.70;3.03;;;;;;;;;;5093054;28;20209;-81
2023/03/17 03:10:49;;;;;;;4.07;3.67;;;;;;;;;;5093093;28;20250;-81
2023/03/17 03:13:17;;;;;;;3.77;3.40;;;;;;;;;;5093177;28;20205;-81
2023/03/17 03:15:47;;;;;;;5.37;4.87;;;;;;;;;;5092939;28;20245;-81
2023/03/17 03:18:16;;;;;;;6.70;4.40;;;;;;;;;;5092972;28;20204;-81
2023/03/17 03:20:45;;;;;;;4.20;3.80;;;;;;;;;;5093223;28;20205;-82
2023/03/17 03:23:15;;;;;;;4.70;4.20;;;;;;;;;;5092874;28;20244;-81
2023/03/17 03:25:43;;;;;;;4.53;4.00;;;;;;;;;;5093215;28;20429;-81
2023/03/17 03:28:12;;;;;;;4.73;3.90;;;;;;;;;;5092846;28;20194;-81
2023/03/17 03:30:43;;;;;;;4.77;4.37;;;;;;;;;;5093212;28;20197;-81
2023/03/17 03:33:14;;;;;;;7.73;4.23;;;;;;;;;;5092893;28;20206;-82
2023/03/17 03:35:43;;;;;;;4.93;4.30;;;;;;;;;;5092677;28;20222;-81
2023/03/17 03:38:11;;;;;;;2.40;2.20;;;;;;;;;;5092728;28;20223;-81
2023/03/17 03:40:40;;;;;;;4.10;3.70;;;;;;;;;;5092736;28;20202;-81
2023/03/17 03:43:08;;;;;;;4.47;4.07;;;;;;;;;;5092721;28;20220;-81
2023/03/17 03:45:50;;;;;;;4.33;3.93;;;;;;;;;;5092614;28;20200;-81
2023/03/17 03:48:19;;;;;;;4.57;4.13;;;;;;;;;;5092710;28;20233;-81
2023/03/17 03:50:48;;;;;;;5.53;4.10;;;;;;;;;;5092673;28;20233;-81
2023/03/17 03:53:16;;;;;;;3.60;3.30;;;;;;;;;;5092783;28;20201;-81
2023/03/17 03:55:45;;;;;;;4.80;3.67;;;;;;;;;;5092451;28;20247;-81
2023/03/17 03:58:13;;;;;;;5.33;3.67;;;;;;;;;;5092468;28;20261;-81
2023/03/17 04:00:44;;;;;;;4.23;3.80;;;;;;;;;;5092458;28;20249;-81
2023/03/17 04:03:13;;;;;;;4.97;3.70;;;;;;;;;;5092213;28;20270;-81
2023/03/17 04:05:42;;;;;;;4.50;4.10;;;;;;;;;;5092595;28;20454;-81
2023/03/17 04:08:11;;;;;;;5.03;4.53;;;;;;;;;;5092521;28;20210;-81
2023/03/17 04:10:39;;;;;;;5.07;4.50;;;;;;;;;;5092574;28;20211;-81
2023/03/17 04:13:08;;;;;;;4.30;3.37;;;;;;;;;;5092436;28;20205;-81
2023/03/17 04:15:36;;;;;;;3.87;3.57;;;;;;;;;;5092368;28;20246;-81
2023/03/17 04:18:05;;;;;;;4.73;4.33;;;;;;;;;;5092500;28;20291;-81
2023/03/17 04:20:33;;;;;;;2.37;2.17;;;;;;;;;;5092519;28;20244;-81
2023/03/17 04:23:03;;;;;;;4.63;4.10;;;;;;;;;;5092150;28;20205;-81
2023/03/17 04:25:32;;;;;;;3.70;3.40;;;;;;;;;;5092137;28;20197;-81
2023/03/17 04:28:00;;;;;;;4.40;3.60;;;;;;;;;;5092295;28;20198;-81
2023/03/17 04:30:29;;;;;;;4.23;3.83;;;;;;;;;;5091607;28;20293;-81
2023/03/17 04:32:57;;;;;;;5.10;3.83;;;;;;;;;;5092085;28;20202;-81
2023/03/17 04:35:26;;;;;;;4.63;2.90;;;;;;;;;;5092126;28;20221;-81
2023/03/17 04:37:55;;;;;;;4.53;3.77;;;;;;;;;;5091915;28;20216;-82
2023/03/17 04:40:25;;;;;;;4.83;3.80;;;;;;;;;;5092062;28;20207;-81
2023/03/17 04:42:53;;;;;;;2.10;2.00;;;;;;;;;;5091872;28;20209;-81
2023/03/17 04:45:22;;;;;;;3.93;3.17;;;;;;;;;;5091940;28;20194;-81
2023/03/17 04:47:50;;;;;;;2.60;2.40;;;;;;;;;;5092010;28;20198;-81
2023/03/17 04:50:19;;;;;;;4.57;3.63;;;;;;;;;;5092497;28;20271;-81
2023/03/17 04:52:48;;;;;;;3.93;3.63;;;;;;;;;;5092004;28;20202;-81
2023/03/17 04:55:16;;;;;;;3.87;3.57;;;;;;;;;;5091724;28;20249;-81
2023/03/17 04:57:46;;;;;;;4.90;3.90;;;;;;;;;;5092099;28;20202;-81
2023/03/17 05:00:15;;;;;;;4.53;2.87;;;;;;;;;;5091963;28;20224;-82
2023/03/17 05:02:43;;;;;;;4.73;3.60;;;;;;;;;;5091945;28;20201;-82
2023/03/17 05:05:12;;;;;;;4.40;4.00;;;;;;;;;;5091784;28;20224;-81
2023/03/17 05:07:40;;;;;;;3.80;3.37;;;;;;;;;;5091990;28;20227;-81
2023/03/17 05:10:10;;;;;;;2.30;2.10;;;;;;;;;;5091435;28;20328;-81
2023/03/17 05:12:38;;;;;;;3.40;3.07;;;;;;;;;;5091871;28;20231;-81
2023/03/17 05:15:08;;;;;;;4.47;4.07;;;;;;;;;;5091236;28;20213;-81
2023/03/17 05:17:37;;;;;;;3.47;3.17;;;;;;;;;;5094945;28;20221;-81
2023/03/17 05:20:07;;;;;;;3.03;2.73;;;;;;;;;;5095606;28;20293;-81
2023/03/17 05:22:35;;;;;;;4.83;4.37;;;;;;;;;;5095323;28;20202;-81
2023/03/17 05:25:05;;;;;;;4.10;3.47;;;;;;;;;;5095185;28;20233;-81
2023/03/17 05:27:33;;;;;;;6.17;3.87;;;;;;;;;;5095216;28;20304;-81
2023/03/17 05:30:02;;;;;;;3.67;2.80;;;;;;;;;;5094876;28;20199;-82
2023/03/17 05:32:32;;;;;;;4.63;3.53;;;;;;;;;;5094922;28;20194;-82
2023/03/17 05:35:01;;;;;;;4.47;3.00;;;;;;;;;;5095283;28;20219;-82
2023/03/17 05:37:29;;;;;;;1.83;1.73;;;;;;;;;;5095132;28;20211;-82
2023/03/17 05:39:58;;;;;;;0.97;0.97;;;;;;;;;;5095010;28;20301;-82
2023/03/17 05:42:27;;;;;;;3.40;2.83;;;;;;;;;;5094771;28;20237;-82
2023/03/17 05:44:55;;;;;;;3.43;3.13;;;;;;;;;;5094808;28;20263;-82
2023/03/17 05:47:24;;;;;;;1.33;1.30;;;;;;;;;;5095330;28;20190;-82
2023/03/17 05:49:54;;;;;;;3.57;3.17;;;;;;;;;;5094935;28;20198;-82
2023/03/17 05:52:22;;;;;;;1.50;1.50;;;;;;;;;;5094793;28;20196;-81
2023/03/17 05:54:52;;;;;;;3.50;2.90;;;;;;;;;;5094738;28;20202;-82
2023/03/17 05:57:20;;;;;;;1.83;1.73;;;;;;;;;;5094818;28;20247;-81
2023/03/17 05:59:49;;;;;;;2.97;2.70;;;;;;;;;;5094541;28;20202;-82
2023/03/17 06:02:18;;;;;;;4.10;3.70;;;;;;;;;;5094398;28;20199;-81
2023/03/17 06:04:48;;;;;;;4.27;3.33;;;;;;;;;;5094561;28;20234;-81
2023/03/17 06:07:18;;;;;;;2.73;2.53;;;;;;;;;;5094612;28;20198;-81
2023/03/17 06:09:46;;;;;;;4.60;3.60;;;;;;;;;;5094204;28;20238;-82
2023/03/17 06:12:15;;;;;;;4.07;2.40;;;;;;;;;;5094177;28;20201;-82
2023/03/17 06:14:43;;;;;;;7.83;4.40;;;;;;;;;;5094515;28;20236;-81
2023/03/17 06:17:12;;;;;;;3.90;3.53;;;;;;;;;;5094190;28;20218;-82
2023/03/17 06:19:40;;;;;;;5.53;3.70;;;;;;;;;;5093721;28;20239;-82
2023/03/17 06:22:09;;;;;;;3.30;3.00;;;;;;;;;;5094015;28;20202;-82
2023/03/17 06:24:40;;;;;;;5.07;4.53;;;;;;;;;;5094023;28;20294;-82
2023/03/17 06:27:09;;;;;;;4.40;4.00;;;;;;;;;;5094122;28;20206;-82
2023/03/17 06:29:38;;;;;;;3.97;3.57;;;;;;;;;;5094287;28;20198;-82
2023/03/17 06:32:08;;;;;;;5.77;4.07;;;;;;;;;;5093945;28;20240;-82
2023/03/17 06:34:47;;;;;;;5.40;4.10;;;;;;;;;;5094123;28;20261;-81
2023/03/17 06:37:16;;;;;;;4.33;4.03;;;;;;;;;;5093704;28;20249;-81
2023/03/17 06:39:46;;;;;;;3.27;3.00;;;;;;;;;;5093951;28;20197;-82
2023/03/17 06:42:15;;;;;;;6.10;4.03;;;;;;;;;;5093660;28;20207;-82
2023/03/17 06:44:44;;;;;;;4.93;4.07;;;;;;;;;;5093537;28;20238;-82
2023/03/17 06:47:12;;;;;;;5.40;4.40;;;;;;;;;;5093767;28;20507;-81
2023/03/17 06:49:40;;;;;;;4.20;3.80;;;;;;;;;;5093667;28;20296;-82
2023/03/17 06:52:09;;;;;;;7.33;4.77;;;;;;;;;;5093285;28;20191;-82
2023/03/17 06:54:37;;;;;;;4.70;3.37;;;;;;;;;;5093489;28;20225;-82
2023/03/17 06:57:08;;;;;;;4.77;3.83;;;;;;;;;;5093282;28;20238;-83
2023/03/17 06:59:36;;;;;;;4.27;3.63;;;;;;;;;;5093225;28;20211;-83
2023/03/17 07:02:05;;;;;;;5.07;4.17;;;;;;;;;;5093486;28;20228;-83
2023/03/17 07:04:36;;;;;;;3.47;3.17;;;;;;;;;;5093516;28;20204;-83
2023/03/17 07:07:05;;;;;;;4.90;3.70;;;;;;;;;;5093112;28;20237;-83
2023/03/17 07:09:34;;;;;;;4.70;3.87;;;;;;;;;;5093163;28;20241;-84
2023/03/17 07:12:04;;;;;;;4.10;2.27;;;;;;;;;;5093342;28;20201;-83
2023/03/17 07:14:35;;;;;;;4.33;3.93;;;;;;;;;;5093250;28;20199;-83
2023/03/17 07:17:03;;;;;;;5.20;3.60;;;;;;;;;;5092870;28;20219;-84
2023/03/17 07:19:33;;;;;;;4.53;4.00;;;;;;;;;;5093234;28;20208;-83
2023/03/17 07:22:02;;;;;;;5.03;4.10;;;;;;;;;;5092922;28;20195;-83
2023/03/17 07:24:30;;;;;;;3.67;3.37;;;;;;;;;;5092836;28;20202;-83
2023/03/17 07:26:59;;;;;;;5.80;3.17;;;;;;;;;;5092925;28;20229;-83
2023/03/17 07:29:28;;;;;;;4.87;3.43;;;;;;;;;;5093203;28;20217;-84
2023/03/17 07:31:57;;;;;;;5.37;3.43;;;;;;;;;;5093543;28;20206;-84
2023/03/17 07:34:27;;;;;;;5.70;3.97;;;;;;;;;;5092605;28;20201;-84
2023/03/17 07:36:55;;;;;;;3.40;3.10;;;;;;;;;;5092718;28;20258;-84
2023/03/17 07:39:24;;;;;;;4.37;3.60;;;;;;;;;;5092425;28;20204;-83
2023/03/17 07:41:54;;;;;;;3.40;3.13;;;;;;;;;;5092547;28;20201;-84
2023/03/17 07:44:22;;;;;;;4.33;2.53;;;;;;;;;;5092988;28;20206;-84
2023/03/17 07:46:51;;;;;;;5.53;3.27;;;;;;;;;;5092644;28;20201;-84
2023/03/17 07:49:21;;;;;;;4.87;4.00;;;;;;;;;;5092132;28;20249;-83
2023/03/17 07:52:05;;;;;;;3.50;2.90;;;;;;;;;;5092389;28;20219;-83
2023/03/17 07:54:34;;;;;;;3.17;2.77;;;;;;;;;;5091965;28;20192;-84
2023/03/17 07:57:03;;;;;;;3.97;3.17;;;;;;;;;;5092601;28;20209;-83
2023/03/17 07:59:31;;;;;;;8.97;4.60;;;;;;;;;;5092669;28;20259;-83
2023/03/17 08:02:00;;;;;;;5.77;4.43;;;;;;;;;;5092090;28;20252;-84
2023/03/17 08:04:30;;;;;;;3.90;3.30;;;;;;;;;;5092005;28;20194;-83
2023/03/17 08:07:00;;;;;;;4.20;3.40;;;;;;;;;;5092329;28;20231;-83
2023/03/17 08:09:28;;;;;;;3.83;2.70;;;;;;;;;;5092223;28;20266;-83
2023/03/17 08:11:57;;;;;;;5.93;3.90;;;;;;;;;;5092261;28;20204;-83
2023/03/17 08:14:26;;;;;;;5.70;3.93;;;;;;;;;;5091841;28;20204;-83
2023/03/17 08:16:55;;;;;;;4.80;3.97;;;;;;;;;;5091948;28;20219;-83
2023/03/17 08:19:24;;;;;;;3.23;2.93;;;;;;;;;;5092128;28;20203;-83
2023/03/17 08:21:53;;;;;;;5.60;3.73;;;;;;;;;;5092242;28;20253;-83
2023/03/17 08:24:22;;;;;;;7.30;4.47;;;;;;;;;;5091996;28;20199;-83
2023/03/17 08:26:51;;;;;;;7.77;3.80;;;;;;;;;;5091975;28;20211;-83
2023/03/17 08:29:19;;;;;;;4.50;3.90;;;;;;;;;;5092422;28;20203;-84
2023/03/17 08:31:48;;;;;;;4.33;3.93;;;;;;;;;;5091833;28;20202;-83
2023/03/17 08:34:16;;;;;;;6.47;3.83;;;;;;;;;;5091788;28;20522;-83
2023/03/17 08:36:45;;;;;;;4.70;4.27;;;;;;;;;;5092070;28;20197;-83
2023/03/17 08:39:14;;;;;;;3.83;3.27;;;;;;;;;;5091819;28;20310;-83
2023/03/17 08:41:45;;;;;;;6.23;5.17;;;;;;;;;;5088930;28;20204;-83
2023/03/17 08:44:15;;;;;;;5.07;4.60;;;;;;;;;;5091017;28;20260;-83
2023/03/17 08:46:43;;;;;;;4.50;2.97;;;;;;;;;;5086647;28;20196;-82
2023/03/17 08:49:12;;;;;;;4.17;3.60;;;;;;;;;;5087998;28;20212;-82
2023/03/17 08:51:41;;;;;;;5.40;4.03;;;;;;;;;;5083821;28;20303;-82
2023/03/17 08:54:09;;;;;;;4.13;3.73;;;;;;;;;;5084212;28;20269;-82
2023/03/17 08:56:40;;;;;;;3.30;2.97;;;;;;;;;;5084951;28;20207;-82
2023/03/17 08:59:09;;;;;;;5.73;3.23;;;;;;;;;;5083192;28;20231;-83
2023/03/17 09:01:38;;;;;;;4.63;3.80;;;;;;;;;;5082467;28;20289;-83
2023/03/17 09:04:07;;;;;;;4.43;3.60;;;;;;;;;;5081999;28;20226;-83
2023/03/17 09:06:38;;;;;;;3.03;2.73;;;;;;;;;;5081494;28;20221;-82
2023/03/17 09:09:16;;;;;;;7.23;4.57;;;;;;;;;;5079492;28;20283;-82
2023/03/17 09:11:46;;;;;;;6.53;4.60;;;;;;;;;;5081455;28;20210;-82
2023/03/17 09:14:14;;;;;;;7.63;3.77;;;;;;;;;;5078969;28;20461;-82
2023/03/17 09:16:43;;;;;;;3.90;3.17;;;;;;;;;;5081161;28;20205;-83
2023/03/17 09:19:11;;;;;;;4.87;4.03;;;;;;;;;;5081269;28;20336;-82
2023/03/17 09:21:40;;;;;;;5.50;3.40;;;;;;;;;;5083047;28;20252;-82
2023/03/17 09:24:08;;;;;;;4.60;4.10;;;;;;;;;;5081372;28;20237;-82
2023/03/17 09:26:37;;;;;;;2.70;2.30;;;;;;;;;;5084663;28;20292;-84
2023/03/17 09:29:07;;;;;;;2.03;1.77;;;;;;;;;;5082707;28;20219;-82
2023/03/17 09:31:36;;;;;;;2.63;2.43;;;;;;;;;;5083220;28;20216;-82
2023/03/17 09:34:05;;;;;;;2.90;2.70;;;;;;;;;;5078756;28;20216;-82
2023/03/17 09:36:34;;;;;;;4.80;4.40;;;;;;;;;;5079580;28;20193;-82
2023/03/17 09:39:03;;;;;;;3.47;2.90;;;;;;;;;;5081027;28;20270;-82
2023/03/17 09:41:49;;;;;;;4.30;3.50;;;;;;;;;;5084666;28;20213;-82
2023/03/17 09:44:27;;;;;;;2.47;2.27;;;;;;;;;;5080490;28;20483;-82
2023/03/17 09:47:01;;;;;;;5.63;4.07;;;;;;;;;;5082296;28;20210;-82
2023/03/17 09:49:36;;;;;;;5.07;4.37;;;;;;;;;;5087298;28;20201;-82
2023/03/17 09:52:05;;;;;;;7.20;4.60;;;;;;;;;;5083506;28;20243;-82
2023/03/17 09:54:36;;;;;;;7.80;3.63;;;;;;;;;;5081858;28;20240;-81
2023/03/17 09:57:09;;;;;;;8.33;4.03;;;;;;;;;;5085504;28;20214;-82
2023/03/17 09:59:42;;;;;;;6.77;4.63;;;;;;;;;;5086790;28;20254;-83
2023/03/17 10:02:16;;;;;;;5.70;4.03;;;;;;;;;;5079449;28;20193;-83
2023/03/17 10:04:46;;;;;;;1.17;1.17;;;;;;;;;;5082541;28;20263;-82
2023/03/17 10:07:17;;;;;;;4.83;3.20;;;;;;;;;;5079372;28;20235;-81
2023/03/17 10:09:48;;;;;;;4.97;4.47;;;;;;;;;;5084799;28;20256;-82
2023/03/17 10:12:21;;;;;;;3.23;2.77;;;;;;;;;;5080214;28;20213;-82
2023/03/17 10:14:56;;;;;;;5.47;4.93;;;;;;;;;;5079866;28;20218;-81
2023/03/17 10:17:26;;;;;;;5.50;3.97;;;;;;;;;;5084503;28;20214;-82
2023/03/17 10:19:58;;;;;;;6.10;2.60;;;;;;;;;;5083168;28;20227;-83
2023/03/17 10:22:31;;;;;;;5.57;4.13;;;;;;;;;;5080123;28;20290;-83
2023/03/17 10:25:02;;;;;;;5.60;3.23;;;;;;;;;;5081604;28;20215;-83
2023/03/17 10:27:32;;;;;;;4.60;4.20;;;;;;;;;;5077543;28;20214;-82
2023/03/17 10:30:02;;;;;;;3.73;3.27;;;;;;;;;;5084708;28;20213;-82
2023/03/17 10:32:31;;;;;;;4.03;2.87;;;;;;;;;;5074127;28;20219;-85
2023/03/17 10:35:01;;;;;;;6.60;3.83;;;;;;;;;;5084806;28;20219;-83
2023/03/17 10:37:35;;;;;;;3.37;3.07;;;;;;;;;;5081428;28;20268;-83
2023/03/17 10:40:09;;;;;;;5.17;3.47;;;;;;;;;;5078349;28;20234;-82
2023/03/17 10:42:46;;;;;;;3.77;3.43;;;;;;;;;;5078778;28;20217;-83
2023/03/17 10:45:24;;;;;;;7.47;3.53;;;;;;;;;;5078192;28;20240;-82
2023/03/17 10:47:56;;;;;;;2.97;2.27;;;;;;;;;;5077570;28;20204;-82
2023/03/17 10:50:27;;;;;;;5.70;3.20;;;;;;;;;;5076575;28;20302;-82
2023/03/17 10:52:59;;;;;;;2.40;2.20;;;;;;;;;;5078122;28;20208;-83
2023/03/17 10:55:29;;;;;;;3.03;2.73;;;;;;;;;;5076816;28;20216;-83
2023/03/17 10:58:02;;;;;;;4.43;3.73;;;;;;;;;;5077688;28;20215;-83
2023/03/17 11:00:34;;;;;;;3.00;2.60;;;;;;;;;;5078129;28;20200;-84
2023/03/17 11:03:05;;;;;;;2.77;2.57;;;;;;;;;;5078921;28;20243;-83
2023/03/17 11:05:33;;;;;;;2.87;2.60;;;;;;;;;;5077685;28;20242;-83
2023/03/17 11:08:09;;;;;;;5.40;3.50;;;;;;;;;;5076895;28;20286;-83
2023/03/17 11:10:38;;;;;;;2.00;1.90;;;;;;;;;;5078300;28;20291;-83
2023/03/17 11:13:07;;;;;;;1.07;1.03;;;;;;;;;;5079028;28;20207;-85
2023/03/17 11:15:38;;;;;;;2.93;2.37;;;;;;;;;;5081526;28;20206;-84
2023/03/17 11:18:14;;;;;;;1.53;1.43;;;;;;;;;;5077722;28;20297;-85
2023/03/17 11:20:48;;;;;;;1.73;1.60;;;;;;;;;;5078651;28;20207;-85
2023/03/17 11:23:43;;;;;;;3.87;3.43;;;;;;;;;;5079768;28;20223;-85
2023/03/17 11:26:42;;;;;;;5.27;4.17;;;;;;;;;;5081086;28;20887;-85
2023/03/17 11:29:18;;;;;;;10.30;4.27;;;;;;;;;;4994382;28;20241;-85
2023/03/17 11:31:51;;;;;;;3.40;2.73;;;;;;;;;;5060155;28;20218;-84
2023/03/17 11:34:23;;;;;;;2.00;1.90;;;;;;;;;;5078380;28;20217;-85
2023/03/17 11:36:57;;;;;;;0.80;0.80;;;;;;;;;;5073404;28;20209;-84
2023/03/17 11:39:30;;;;;;;3.00;2.73;;;;;;;;;;5073855;28;20216;-85
2023/03/17 11:42:04;;;;;;;1.60;1.37;;;;;;;;;;5083912;28;20310;-86
2023/03/17 11:44:51;;;;;;;5.23;3.67;;;;;;;;;;5080172;28;20212;-86
2023/03/17 11:47:27;;;;;;;5.80;5.27;;;;;;;;;;5079855;28;20215;-85
2023/03/17 11:50:02;;;;;;;7.83;6.43;;;;;;;;;;5072946;28;20257;-85
2023/03/17 11:52:37;;;;;;;3.60;2.87;;;;;;;;;;5074381;28;20234;-85
2023/03/17 11:55:10;;;;;;;11.43;5.00;;;;;;;;;;5076571;28;20212;-80
2023/03/17 11:57:41;;;;;;;9.13;5.83;;;;;;;;;;5079097;28;20212;-80
2023/03/17 12:00:16;;;;;;;9.53;4.87;;;;;;;;;;5074982;28;20251;-80
2023/03/17 12:02:49;;;;;;;2.77;2.47;;;;;;;;;;5074938;28;20204;-80
2023/03/17 12:05:21;;;;;;;3.43;3.13;;;;;;;;;;5076314;28;20232;-83
2023/03/17 12:07:53;;;;;;;2.97;2.53;;;;;;;;;;5070344;28;20205;-82
2023/03/17 12:10:24;;;;;;;5.87;2.27;;;;;;;;;;5070997;28;20236;-82
2023/03/17 12:12:56;;;;;;;5.17;2.73;;;;;;;;;;5079686;28;20212;-81
2023/03/17 12:15:29;;;;;;;3.47;3.13;;;;;;;;;;5083367;28;20215;-81
2023/03/17 12:18:02;;;;;;;4.07;2.67;;;;;;;;;;5077249;28;20216;-82
2023/03/17 12:20:34;;;;;;;2.23;1.90;;;;;;;;;;5077051;28;20232;-81
2023/03/17 12:23:06;;;;;;;6.03;2.87;;;;;;;;;;5076544;28;20205;-81
2023/03/17 12:25:36;;;;;;;2.17;1.97;;;;;;;;;;5077971;28;20201;-81
2023/03/17 12:28:07;;;;;;;2.93;2.13;;;;;;;;;;5085000;28;20200;-81
2023/03/17 12:30:39;;;;;;;2.63;2.37;;;;;;;;;;5083425;28;20219;-82
2023/03/17 12:33:16;;;;;;;4.37;2.80;;;;;;;;;;5081599;28;20208;-81
2023/03/17 12:35:45;;;;;;;8.30;5.33;;;;;;;;;;5082377;28;20219;-81
2023/03/17 12:38:17;;;;;;;2.37;2.17;;;;;;;;;;5080565;28;20204;-83
2023/03/17 12:41:04;;;;;;;2.50;2.30;;;;;;;;;;5081037;28;20259;-81
2023/03/17 12:43:39;;;;;;;3.40;1.90;;;;;;;;;;5078503;28;20202;-82
2023/03/17 12:46:21;;;;;;;4.57;1.63;;;;;;;;;;5078010;28;20204;-82
2023/03/17 12:48:58;;;;;;;10.73;4.47;;;;;;;;;;5077014;28;20193;-80
2023/03/17 12:51:34;;;;;;;1.10;1.10;;;;;;;;;;5079533;28;20237;-80
2023/03/17 12:54:06;;;;;;;3.53;3.33;;;;;;;;;;5085126;28;20255;-81
2023/03/17 12:56:35;;;;;;;7.33;5.53;;;;;;;;;;5086984;28;20211;-80
2023/03/17 12:59:05;;;;;;;10.43;6.33;;;;;;;;;;5089088;28;20258;-80
2023/03/17 13:01:36;;;;;;;1.53;1.43;;;;;;;;;;5082641;28;20319;-80
2023/03/17 13:04:14;;;;;;;11.00;6.00;;;;;;;;;;5085712;28;20204;-81
2023/03/17 13:06:45;;;;;;;2.87;2.67;;;;;;;;;;5080102;28;20266;-80
2023/03/17 13:09:32;;;;;;;1.00;0.97;;;;;;;;;;5081315;28;20241;-80
2023/03/17 13:12:01;;;;;;;1.97;1.87;;;;;;;;;;5081311;28;20304;-80
2023/03/17 13:14:43;;;;;;;1.73;1.63;;;;;;;;;;5084242;28;20197;-83
2023/03/17 13:17:32;;;;;;;5.77;4.33;;;;;;;;;;5083785;28;20421;-80
2023/03/17 13:20:11;;;;;;;1.57;1.47;;;;;;;;;;5093207;28;20274;-80
2023/03/17 13:22:41;;;;;;;2.20;1.77;;;;;;;;;;5080522;28;20207;-80
2023/03/17 13:25:14;;;;;;;1.33;1.33;;;;;;;;;;5087632;28;20286;-80
2023/03/17 13:27:45;;;;;;;2.10;2.00;;;;;;;;;;5080988;28;20195;-80
2023/03/17 13:30:49;;;;;;;5.30;3.33;;;;;;;;;;5079777;28;20203;-80
2023/03/17 13:33:22;;;;;;;1.07;1.00;;;;;;;;;;5009032;28;20199;-80
2023/03/17 13:36:06;;;;;;;2.87;2.30;;;;;;;;;;5007188;28;20254;-80
2023/03/17 13:38:44;;;;;;;3.60;2.83;;;;;;;;;;5049468;28;20205;-80
2023/03/17 13:41:25;;;;;;;4.07;2.43;;;;;;;;;;5079610;28;20343;-80
2023/03/17 13:44:04;;;;;;;3.77;2.30;;;;;;;;;;5086838;28;20228;-80
2023/03/17 13:46:40;;;;;;;1.77;1.67;;;;;;;;;;5082625;28;20211;-80
2023/03/17 13:49:20;;;;;;;8.60;3.23;;;;;;;;;;5083556;28;20229;-80
2023/03/17 13:51:53;;;;;;;19.47;3.70;;;;;;;;;;5082241;28;20197;-80
2023/03/17 13:54:31;;;;;;;5.50;3.83;;;;;;;;;;5080102;28;20209;-80
2023/03/17 13:57:20;;;;;;;5.83;2.33;;;;;;;;;;5076747;28;20223;-81
2023/03/17 13:59:56;;;;;;;2.23;2.00;;;;;;;;;;5086262;28;20427;-80
2023/03/17 14:02:27;;;;;;;1.23;1.13;;;;;;;;;;5083027;28;20212;-80
2023/03/17 14:04:57;;;;;;;11.20;5.20;;;;;;;;;;5077311;28;20255;-80
2023/03/17 14:07:30;;;;;;;4.90;3.83;;;;;;;;;;5080604;28;20221;-80
2023/03/17 14:10:02;;;;;;;4.03;2.73;;;;;;;;;;5082616;28;20217;-80
2023/03/17 14:12:34;;;;;;;7.40;3.80;;;;;;;;;;5083648;28;20205;-80
2023/03/17 14:15:05;;;;;;;0.93;0.93;;;;;;;;;;5082298;28;20213;-80
2023/03/17 14:17:38;;;;;;;7.73;2.37;;;;;;;;;;5079900;28;20204;-80
2023/03/17 14:20:08;;;;;;;3.50;2.70;;;;;;;;;;5082498;28;20222;-80
2023/03/17 14:22:42;;;;;;;2.90;2.20;;;;;;;;;;5079750;28;20224;-80
2023/03/17 14:25:16;;;;;;;0.93;0.93;;;;;;;;;;5082402;28;20296;-81
2023/03/17 14:27:48;;;;;;;8.90;5.67;;;;;;;;;;5080169;28;20204;-82
2023/03/17 14:30:18;;;;;;;7.43;3.93;;;;;;;;;;5075841;28;20197;-82
2023/03/17 14:32:51;;;;;;;2.53;2.33;;;;;;;;;;5081650;28;20219;-81
2023/03/17 14:35:20;;;;;;;1.80;1.70;;;;;;;;;;5077641;28;20201;-81
2023/03/17 14:37:50;;;;;;;2.23;2.03;;;;;;;;;;5075944;28;20236;-82
2023/03/17 14:40:20;;;;;;;0.60;0.60;;;;;;;;;;5078025;28;20228;-83
2023/03/17 14:42:49;;;;;;;0.97;0.97;;;;;;;;;;5080633;28;20205;-83
2023/03/17 14:45:20;;;;;;;6.33;4.00;;;;;;;;;;5075212;28;20205;-81
2023/03/17 14:47:52;;;;;;;2.03;1.93;;;;;;;;;;5083129;28;20205;-80
2023/03/17 14:50:23;;;;;;;1.23;1.13;;;;;;;;;;5079704;28;20216;-81
2023/03/17 14:52:53;;;;;;;7.83;4.57;;;;;;;;;;5086070;28;20201;-81
2023/03/17 14:55:23;;;;;;;1.00;0.90;;;;;;;;;;5080416;28;20247;-81
2023/03/17 14:57:52;;;;;;;4.73;2.67;;;;;;;;;;5081964;28;20243;-81
2023/03/17 15:00:36;;;;;;;2.60;2.30;;;;;;;;;;5078378;28;20258;-81
2023/03/17 15:03:16;;;;;;;4.27;1.97;;;;;;;;;;5073730;28;20261;-79
2023/03/17 15:05:45;;;;;;;1.70;1.70;;;;;;;;;;5080923;28;20256;-81